Harwinton, Connecticut
Current Conditions -  °F | °C
As of 2:52 PM on Thursday 20 Nov 2014 (Local Time) from KOXC Reporting Station
Few Clouds Few Clouds  
Wind Chill: 34°   Ceiling: Unl
Heat Index: 41°   Visibility: 10mi
Dew Point: 18°   Wind: 13mph
Humidity: 39%   Direction: 260°W
Pressure: 29.79"   Gusts: 18mph
Location:  41.77°N, 73.07°W
Report Text: KOXC 201952Z 26011G16KT 10SM FEW060 05/M08 A2979
Loading
Personal Weather Stations






























Interactive Weather Map New forecast layout! Learn more

10-Day Weather Forecast

Advertisements
Track Severe Weather on mobile